createdAt,value
2023-04-11T00:01:10.037Z,46.72
2023-04-11T00:03:38.959Z,48.88
2023-04-11T00:06:06.134Z,61.75
2023-04-11T00:08:32.714Z,62.95
2023-04-11T00:10:59.250Z,62.70
2023-04-11T00:13:26.689Z,60.70
2023-04-11T00:15:57.693Z,48.50
2023-04-11T00:18:25.858Z,34.78
2023-04-11T00:20:52.423Z,32.42
2023-04-11T00:23:19.095Z,32.80
2023-04-11T00:25:45.639Z,33.78
2023-04-11T00:28:12.332Z,33.60
2023-04-11T00:30:39.245Z,34.60
2023-04-11T00:33:05.893Z,37.15
2023-04-11T00:35:35.125Z,42.08
2023-04-11T00:38:02.327Z,46.70
2023-04-11T00:40:29.150Z,54.85
2023-04-11T00:42:58.763Z,58.78
2023-04-11T00:45:25.870Z,65.30
2023-04-11T00:47:53.375Z,74.47
2023-04-11T00:50:22.017Z,78.65
2023-04-11T00:52:51.016Z,70.68
2023-04-11T00:55:17.609Z,58.15
2023-04-11T00:57:44.755Z,47.40
2023-04-11T01:00:12.195Z,40.30
2023-04-11T01:02:43.250Z,39.22
2023-04-11T01:05:12.075Z,44.33
2023-04-11T01:07:40.773Z,57.30
2023-04-11T01:10:08.362Z,71.47
2023-04-11T01:12:36.916Z,71.40
2023-04-11T01:15:03.891Z,65.07
2023-04-11T01:17:30.653Z,62.13
2023-04-11T01:19:57.854Z,68.28
2023-04-11T01:22:25.843Z,71.18
2023-04-11T01:24:52.416Z,79.40
2023-04-11T01:27:19.769Z,72.60
2023-04-11T01:29:46.409Z,71.47
2023-04-11T01:32:13.023Z,67.22
2023-04-11T01:34:42.145Z,67.13
2023-04-11T01:37:09.511Z,70.70
2023-04-11T01:39:36.182Z,75.32
2023-04-11T01:42:04.539Z,79.38
2023-04-11T01:44:33.254Z,79.38
2023-04-11T01:47:00.011Z,74.28
2023-04-11T01:49:26.585Z,70.82
2023-04-11T01:51:53.164Z,71.63
2023-04-11T01:54:19.721Z,75.53
2023-04-11T01:56:46.585Z,80.13
2023-04-11T01:59:13.395Z,73.30
2023-04-11T02:01:44.185Z,67.00
2023-04-11T02:04:11.018Z,66.18
2023-04-11T02:06:38.656Z,64.55
2023-04-11T02:09:05.446Z,63.53
2023-04-11T02:11:32.069Z,57.05
2023-04-11T02:13:59.754Z,54.75
2023-04-11T02:16:29.859Z,53.90
2023-04-11T02:18:57.398Z,53.40
2023-04-11T02:21:24.140Z,52.25
2023-04-11T02:23:50.793Z,53.22
2023-04-11T02:26:17.449Z,53.17
2023-04-11T02:28:44.005Z,53.90
2023-04-11T02:31:10.656Z,57.03
2023-04-11T02:33:37.240Z,55.08
2023-04-11T02:36:04.042Z,55.67
2023-04-11T02:38:30.684Z,50.75
2023-04-11T02:40:57.288Z,49.88
2023-04-11T02:43:23.864Z,47.25
2023-04-11T02:45:54.183Z,50.15
2023-04-11T02:48:23.211Z,49.30
2023-04-11T02:50:49.874Z,56.38
2023-04-11T02:53:16.523Z,53.88
2023-04-11T02:55:43.426Z,52.63
2023-04-11T02:58:10.042Z,50.25
2023-04-11T03:00:37.754Z,52.50
2023-04-11T03:03:05.864Z,50.55
2023-04-11T03:05:32.466Z,55.63
2023-04-11T03:07:59.080Z,51.67
2023-04-11T03:10:25.723Z,57.78
2023-04-11T03:12:52.258Z,62.45
2023-04-11T03:15:18.847Z,67.78
2023-04-11T03:17:45.505Z,63.42
2023-04-11T03:20:13.609Z,68.15
2023-04-11T03:22:40.235Z,65.38
2023-04-11T03:25:07.474Z,64.82
2023-04-11T03:27:34.070Z,62.08
2023-04-11T03:30:00.729Z,57.70
2023-04-11T03:32:27.302Z,60.45
2023-04-11T03:34:53.871Z,64.05
2023-04-11T03:37:20.514Z,59.13
2023-04-11T03:39:47.092Z,66.45
2023-04-11T03:42:14.248Z,69.88
2023-04-11T03:44:40.808Z,76.07
2023-04-11T03:47:07.458Z,76.68
2023-04-11T03:49:34.086Z,77.13
2023-04-11T03:52:00.809Z,82.50
2023-04-11T03:54:27.360Z,91.80
2023-04-11T03:56:54.124Z,89.72
2023-04-11T03:59:20.918Z,94.63
2023-04-11T04:01:47.527Z,92.60
2023-04-11T04:04:14.339Z,88.90
2023-04-11T04:06:41.019Z,76.63
2023-04-11T04:09:07.819Z,75.28
2023-04-11T04:11:34.403Z,68.30
2023-04-11T04:14:02.264Z,70.65
2023-04-11T04:16:28.883Z,69.25
2023-04-11T04:18:55.570Z,70.85
2023-04-11T04:21:22.097Z,71.43
2023-04-11T04:23:48.820Z,69.75
2023-04-11T04:26:18.234Z,62.17
2023-04-11T04:28:46.012Z,57.83
2023-04-11T04:31:15.239Z,57.58
2023-04-11T04:33:43.181Z,52.50
2023-04-11T04:36:12.459Z,50.50
2023-04-11T04:38:42.097Z,49.15
2023-04-11T04:41:15.174Z,47.72
2023-04-11T04:43:42.601Z,47.50
2023-04-11T04:46:09.357Z,50.38
2023-04-11T04:48:35.940Z,51.33
2023-04-11T04:51:04.487Z,52.72
2023-04-11T04:53:34.725Z,53.72
2023-04-11T04:56:02.191Z,51.40
2023-04-11T04:58:28.859Z,50.83
2023-04-11T05:00:55.919Z,52.17
2023-04-11T05:03:23.229Z,54.83
2023-04-11T05:05:49.946Z,56.83
2023-04-11T05:08:19.467Z,60.38
2023-04-11T05:10:46.049Z,62.17
2023-04-11T05:13:12.658Z,66.20
2023-04-11T05:15:39.238Z,65.35
2023-04-11T05:18:05.966Z,64.47
2023-04-11T05:20:32.617Z,66.68
2023-04-11T05:22:59.259Z,63.80
2023-04-11T05:25:26.080Z,61.50
2023-04-11T05:27:52.628Z,62.42
2023-04-11T05:30:19.176Z,60.97
2023-04-11T05:32:46.603Z,64.75
2023-04-11T05:35:13.273Z,71.45
2023-04-11T05:37:40.312Z,77.40
2023-04-11T05:40:08.920Z,86.43
2023-04-11T05:42:35.742Z,82.38
2023-04-11T05:45:02.411Z,84.07
2023-04-11T05:47:29.097Z,83.78
2023-04-11T05:49:55.655Z,80.78
2023-04-11T05:52:22.233Z,91.53
2023-04-11T05:54:48.818Z,86.10
2023-04-11T05:57:17.493Z,102.13
2023-04-11T05:59:44.139Z,115.30
2023-04-11T06:02:10.984Z,128.57
2023-04-11T06:04:37.885Z,144.50
2023-04-11T06:07:04.872Z,152.27
2023-04-11T06:09:33.447Z,150.05
2023-04-11T06:12:01.543Z,148.60
2023-04-11T06:14:28.065Z,157.63
2023-04-11T06:16:54.636Z,172.30
2023-04-11T06:19:21.297Z,189.32
2023-04-11T06:21:47.914Z,197.43
2023-04-11T06:24:18.213Z,202.10
2023-04-11T06:26:44.970Z,193.68
2023-04-11T06:29:11.844Z,159.35
2023-04-11T06:31:40.094Z,136.63
2023-04-11T06:34:06.721Z,133.02
2023-04-11T06:36:33.497Z,123.63
2023-04-11T06:39:00.047Z,103.85
2023-04-11T06:41:26.632Z,103.93
2023-04-11T06:43:53.259Z,107.43
2023-04-11T06:46:19.863Z,100.57
2023-04-11T06:48:46.490Z,90.55
2023-04-11T06:51:13.120Z,79.47
2023-04-11T06:53:39.651Z,86.40
2023-04-11T06:56:06.710Z,87.85
2023-04-11T06:58:33.260Z,93.32
2023-04-11T07:00:59.840Z,87.95
2023-04-11T07:03:26.563Z,90.15
2023-04-11T07:05:53.257Z,90.78
2023-04-11T07:08:19.813Z,86.72
2023-04-11T07:10:46.425Z,86.65
2023-04-11T07:13:13.075Z,78.03
2023-04-11T07:15:39.608Z,48.20
2023-04-11T07:18:06.332Z,43.72
2023-04-11T07:20:34.406Z,49.47
2023-04-11T07:23:01.239Z,40.20
2023-04-11T07:25:30.798Z,38.65
2023-04-11T07:27:57.800Z,45.33
2023-04-11T07:30:24.392Z,79.22
2023-04-11T07:32:51.238Z,78.82
2023-04-11T07:35:17.936Z,93.18
2023-04-11T07:37:45.657Z,81.50
2023-04-11T07:40:14.379Z,67.45
2023-04-11T07:42:41.491Z,74.90
2023-04-11T07:45:08.821Z,55.38
2023-04-11T07:47:35.740Z,53.65
2023-04-11T07:50:02.751Z,56.63
2023-04-11T07:52:29.350Z,50.63
2023-04-11T07:54:56.227Z,46.10
2023-04-11T07:57:22.854Z,45.70
2023-04-11T07:59:49.408Z,45.78
2023-04-11T08:02:16.170Z,48.00
2023-04-11T08:04:43.009Z,46.75
2023-04-11T08:07:09.684Z,49.08
2023-04-11T08:09:36.315Z,63.00
2023-04-11T08:12:03.512Z,69.78
2023-04-11T08:14:30.265Z,74.20
2023-04-11T08:16:56.992Z,73.82
2023-04-11T08:19:23.924Z,78.53
2023-04-11T08:21:50.545Z,70.53
2023-04-11T08:24:17.426Z,71.32
2023-04-11T08:26:44.154Z,79.32
2023-04-11T08:29:11.414Z,77.05
2023-04-11T08:31:44.926Z,72.53
2023-04-11T08:34:12.701Z,74.18
2023-04-11T08:36:39.488Z,71.35
2023-04-11T08:39:06.729Z,73.93
2023-04-11T08:41:33.665Z,72.95
2023-04-11T08:44:00.808Z,72.97
2023-04-11T08:46:28.432Z,70.70
2023-04-11T08:48:55.186Z,66.78
2023-04-11T08:51:29.020Z,68.80
2023-04-11T08:53:59.740Z,55.38
2023-04-11T08:56:26.651Z,45.10
2023-04-11T08:58:53.240Z,42.10
2023-04-11T09:01:33.207Z,44.65
2023-04-11T09:04:02.408Z,45.40
2023-04-11T09:06:32.779Z,48.83
2023-04-11T09:09:00.744Z,50.60
2023-04-11T09:11:27.656Z,35.67
2023-04-11T09:14:12.162Z,35.30
2023-04-11T09:16:54.109Z,34.88
2023-04-11T09:19:26.030Z,35.20
2023-04-11T09:21:53.998Z,33.95
2023-04-11T09:24:20.673Z,33.53
2023-04-11T09:26:47.375Z,34.10
2023-04-11T09:29:41.352Z,34.10
2023-04-11T09:32:25.394Z,30.35
2023-04-11T09:34:51.984Z,31.85
2023-04-11T09:37:18.701Z,30.75
2023-04-11T09:39:46.284Z,31.27
2023-04-11T09:42:29.143Z,29.30
2023-04-11T09:44:55.847Z,30.88
2023-04-11T09:47:22.450Z,27.80
2023-04-11T09:49:50.254Z,29.67
2023-04-11T09:52:18.692Z,26.83
2023-04-11T09:54:46.042Z,25.45
2023-04-11T09:57:13.356Z,25.08
2023-04-11T09:59:41.121Z,26.70
2023-04-11T10:02:08.038Z,26.20
2023-04-11T10:04:34.732Z,26.05
2023-04-11T10:07:14.592Z,24.05
2023-04-11T10:09:43.184Z,24.33
2023-04-11T10:12:09.751Z,25.30
2023-04-11T10:14:39.199Z,23.50
2023-04-11T10:17:14.879Z,24.67
2023-04-11T10:19:47.299Z,26.58
2023-04-11T10:22:41.707Z,24.95
2023-04-11T10:25:22.184Z,25.40
2023-04-11T10:27:53.017Z,27.13
2023-04-11T10:30:39.527Z,25.33
2023-04-11T10:33:11.126Z,24.20
2023-04-11T10:35:58.186Z,25.50
2023-04-11T10:38:37.225Z,27.15
2023-04-11T10:41:33.037Z,24.45
2023-04-11T10:44:18.524Z,24.40
2023-04-11T10:46:55.897Z,22.92
2023-04-11T10:49:36.457Z,24.67
2023-04-11T10:52:19.135Z,22.17
2023-04-11T10:54:48.832Z,21.98
2023-04-11T10:57:15.444Z,24.63
2023-04-11T10:59:42.269Z,24.15
2023-04-11T11:02:09.767Z,28.23
2023-04-11T11:04:38.704Z,25.08
2023-04-11T11:07:07.922Z,24.52
2023-04-11T11:09:35.402Z,25.95
2023-04-11T11:12:12.911Z,23.92
2023-04-11T11:14:41.552Z,26.10
2023-04-11T11:17:09.094Z,24.70
2023-04-11T11:19:36.171Z,24.48
2023-04-11T11:22:06.730Z,21.98
2023-04-11T11:24:33.343Z,22.50
2023-04-11T11:26:59.967Z,22.48
2023-04-11T11:29:35.059Z,23.98
2023-04-11T11:32:05.928Z,23.77
2023-04-11T11:34:35.298Z,23.63
2023-04-11T11:37:06.668Z,23.17
2023-04-11T11:39:34.722Z,22.50
2023-04-11T11:42:01.744Z,22.17
2023-04-11T11:44:30.108Z,20.60
2023-04-11T11:47:03.417Z,21.40
2023-04-11T11:49:45.771Z,20.50
2023-04-11T11:52:13.938Z,21.08
2023-04-11T11:54:45.423Z,18.40
2023-04-11T11:57:12.305Z,19.17
2023-04-11T11:59:38.948Z,19.17
2023-04-11T12:02:05.732Z,18.52
2023-04-11T12:04:33.347Z,19.17
2023-04-11T12:07:08.607Z,17.50
2023-04-11T12:09:35.243Z,16.33
2023-04-11T12:12:01.798Z,19.08
2023-04-11T12:14:29.525Z,17.90
2023-04-11T12:16:56.061Z,19.23
2023-04-11T12:19:23.482Z,17.77
2023-04-11T12:21:50.013Z,18.67
2023-04-11T12:24:16.577Z,16.25
2023-04-11T12:26:57.358Z,17.27
2023-04-11T12:29:26.453Z,15.27
2023-04-11T12:31:53.062Z,16.48
2023-04-11T12:34:19.622Z,19.00
2023-04-11T12:36:46.287Z,16.48
2023-04-11T12:39:12.882Z,16.33
2023-04-11T12:41:39.417Z,16.85
2023-04-11T12:44:06.191Z,17.45
2023-04-11T12:46:33.630Z,15.15
2023-04-11T12:49:00.725Z,15.77
2023-04-11T12:51:27.591Z,16.63
2023-04-11T12:53:54.171Z,17.85
2023-04-11T12:56:20.758Z,16.33
2023-04-11T12:58:47.308Z,17.15
2023-04-11T13:01:13.849Z,17.25
2023-04-11T13:03:40.779Z,17.38
2023-04-11T13:06:07.888Z,16.45
2023-04-11T13:08:34.443Z,16.00
2023-04-11T13:11:01.028Z,15.40
2023-04-11T13:13:27.544Z,15.43
2023-04-11T13:15:54.154Z,14.95
2023-04-11T13:18:21.071Z,14.68
2023-04-11T13:20:47.674Z,14.77
2023-04-11T13:23:16.671Z,15.55
2023-04-11T13:25:44.045Z,14.75
2023-04-11T13:28:10.664Z,15.65
2023-04-11T13:30:37.244Z,14.13
2023-04-11T13:33:04.140Z,15.35
2023-04-11T13:35:30.848Z,14.15
2023-04-11T13:37:57.766Z,14.85
2023-04-11T13:40:24.334Z,13.43
2023-04-11T13:42:52.179Z,14.10
2023-04-11T13:45:18.767Z,14.32
2023-04-11T13:47:45.329Z,14.70
2023-04-11T13:50:11.940Z,14.75
2023-04-11T13:52:39.531Z,14.27
2023-04-11T13:55:06.678Z,13.20
2023-04-11T13:57:33.272Z,13.52
2023-04-11T13:59:59.841Z,14.45
2023-04-11T14:02:26.698Z,14.10
2023-04-11T14:04:53.597Z,13.95
2023-04-11T14:07:20.188Z,14.25
2023-04-11T14:09:46.765Z,13.63
2023-04-11T14:12:13.303Z,13.93
2023-04-11T14:14:39.951Z,15.55
2023-04-11T14:17:06.617Z,14.13
2023-04-11T14:19:33.309Z,11.90
2023-04-11T14:21:59.913Z,14.60
2023-04-11T14:24:26.729Z,12.73
2023-04-11T14:26:53.301Z,12.05
2023-04-11T14:29:20.991Z,11.70
2023-04-11T14:31:49.301Z,13.82
2023-04-11T14:34:18.132Z,12.73
2023-04-11T14:36:45.045Z,13.77
2023-04-11T14:39:11.640Z,12.82
2023-04-11T14:41:38.217Z,13.15
2023-04-11T14:44:04.771Z,12.05
2023-04-11T14:46:31.465Z,11.70
2023-04-11T14:48:58.063Z,13.40
2023-04-11T14:51:27.203Z,12.68
2023-04-11T14:53:55.436Z,13.52
2023-04-11T14:56:23.265Z,14.93
2023-04-11T14:58:50.690Z,14.40
2023-04-11T15:01:17.974Z,15.98
2023-04-11T15:03:48.924Z,13.75
2023-04-11T15:06:15.756Z,16.35
2023-04-11T15:08:42.341Z,16.52
2023-04-11T15:11:08.975Z,17.67
2023-04-11T15:13:36.009Z,18.98
2023-04-11T15:16:02.956Z,17.75
2023-04-11T15:18:31.607Z,18.00
2023-04-11T15:21:00.292Z,20.70
2023-04-11T15:23:26.966Z,21.98
2023-04-11T15:25:55.379Z,26.25
2023-04-11T15:28:22.985Z,25.92
2023-04-11T15:30:51.810Z,29.65
2023-04-11T15:33:19.571Z,45.45
2023-04-11T15:35:46.699Z,69.60
2023-04-11T15:38:14.349Z,79.40
2023-04-11T15:40:41.003Z,99.35
2023-04-11T15:43:09.078Z,92.30
2023-04-11T15:45:37.745Z,97.65
2023-04-11T15:48:04.536Z,131.95
2023-04-11T15:50:32.114Z,124.47
2023-04-11T15:52:59.464Z,149.60
2023-04-11T15:55:26.125Z,165.57
2023-04-11T15:57:52.751Z,128.73
2023-04-11T16:00:22.153Z,110.38
2023-04-11T16:02:50.206Z,102.18
2023-04-11T16:05:17.193Z,106.30
2023-04-11T16:07:43.828Z,86.03
2023-04-11T16:10:10.616Z,81.30
2023-04-11T16:12:37.481Z,86.95
2023-04-11T16:15:06.032Z,58.00
2023-04-11T16:17:34.541Z,42.80
2023-04-11T16:20:01.231Z,32.25
2023-04-11T16:22:27.893Z,30.00
2023-04-11T16:24:56.308Z,23.55
2023-04-11T16:27:23.141Z,24.65
2023-04-11T16:29:50.130Z,23.38
2023-04-11T16:32:16.728Z,24.02
2023-04-11T16:34:45.313Z,23.40
2023-04-11T16:37:11.824Z,22.92
2023-04-11T16:39:38.473Z,22.13
2023-04-11T16:42:05.139Z,23.55
2023-04-11T16:44:31.727Z,23.05
2023-04-11T16:46:58.249Z,22.73
2023-04-11T16:49:24.872Z,23.15
2023-04-11T16:51:51.571Z,22.00
2023-04-11T16:54:18.097Z,23.70
2023-04-11T16:56:44.688Z,23.73
2023-04-11T16:59:12.330Z,23.42
2023-04-11T17:01:39.228Z,24.58
2023-04-11T17:04:06.741Z,24.23
2023-04-11T17:06:33.496Z,23.77
2023-04-11T17:09:00.328Z,24.88
2023-04-11T17:11:26.945Z,24.73
2023-04-11T17:13:55.502Z,32.97
2023-04-11T17:16:22.759Z,27.55
2023-04-11T17:18:49.352Z,24.45
2023-04-11T17:21:17.180Z,25.30
2023-04-11T17:23:44.209Z,24.60
2023-04-11T17:26:11.938Z,22.85
2023-04-11T17:28:39.796Z,21.83
2023-04-11T17:31:14.005Z,21.90
2023-04-11T17:33:41.823Z,22.00
2023-04-11T17:36:09.380Z,22.20
2023-04-11T17:38:37.493Z,24.77
2023-04-11T17:41:13.470Z,30.38
2023-04-11T17:43:40.732Z,33.35
2023-04-11T17:46:07.538Z,40.33
2023-04-11T17:48:34.471Z,44.03
2023-04-11T17:51:03.034Z,47.80
2023-04-11T17:53:29.593Z,63.95
2023-04-11T17:55:57.534Z,76.85
2023-04-11T17:58:24.080Z,84.55
2023-04-11T18:00:56.250Z,96.75
2023-04-11T18:03:25.840Z,93.10
2023-04-11T18:05:55.249Z,111.72
2023-04-11T18:08:35.502Z,116.80
2023-04-11T18:11:09.759Z,111.22
2023-04-11T18:13:36.418Z,120.15
2023-04-11T18:16:03.440Z,115.03
2023-04-11T18:18:30.167Z,96.75
2023-04-11T18:21:03.495Z,99.38
2023-04-11T18:23:31.481Z,103.90
2023-04-11T18:25:58.066Z,97.97
2023-04-11T18:28:24.624Z,102.13
2023-04-11T18:30:51.275Z,93.93
2023-04-11T18:33:18.992Z,91.38
2023-04-11T18:35:47.397Z,97.35
2023-04-11T18:38:14.478Z,86.78
2023-04-11T18:40:41.197Z,77.45
2023-04-11T18:43:08.223Z,66.07
2023-04-11T18:45:35.555Z,67.70
2023-04-11T18:48:02.365Z,65.30
2023-04-11T18:50:30.750Z,60.15
2023-04-11T18:53:03.720Z,49.97
2023-04-11T18:55:31.440Z,48.70
2023-04-11T18:58:00.312Z,47.50
2023-04-11T19:00:29.551Z,42.97
2023-04-11T19:02:56.475Z,42.20
2023-04-11T19:05:25.421Z,40.35
2023-04-11T19:07:52.858Z,42.47
2023-04-11T19:10:19.790Z,41.90
2023-04-11T19:12:46.360Z,38.75
2023-04-11T19:15:13.198Z,38.47
2023-04-11T19:17:39.873Z,37.70
2023-04-11T19:20:07.460Z,40.00
2023-04-11T19:22:35.958Z,39.08
2023-04-11T19:25:02.665Z,38.25
2023-04-11T19:27:29.373Z,36.55
2023-04-11T19:29:57.019Z,37.92
2023-04-11T19:32:23.799Z,36.08
2023-04-11T19:34:50.760Z,35.88
2023-04-11T19:37:19.332Z,34.03
2023-04-11T19:39:45.981Z,34.55
2023-04-11T19:42:12.573Z,32.28
2023-04-11T19:44:39.840Z,33.88
2023-04-11T19:47:06.497Z,31.73
2023-04-11T19:49:33.092Z,31.88
2023-04-11T19:52:00.887Z,32.33
2023-04-11T19:54:27.476Z,32.03
2023-04-11T19:56:54.201Z,33.92
2023-04-11T19:59:21.004Z,32.78
2023-04-11T20:01:47.841Z,32.78
2023-04-11T20:04:15.975Z,32.53
2023-04-11T20:06:44.299Z,31.20
2023-04-11T20:09:11.780Z,32.50
2023-04-11T20:11:39.510Z,31.70
2023-04-11T20:14:06.999Z,30.75
2023-04-11T20:16:33.782Z,31.52
2023-04-11T20:19:01.713Z,31.20
2023-04-11T20:21:28.604Z,31.38
2023-04-11T20:23:55.401Z,29.58
2023-04-11T20:26:22.476Z,29.23
2023-04-11T20:28:50.427Z,31.25
2023-04-11T20:31:17.136Z,31.38
2023-04-11T20:33:45.378Z,29.55
2023-04-11T20:36:11.985Z,29.60
2023-04-11T20:38:38.660Z,28.42
2023-04-11T20:41:06.335Z,29.23
2023-04-11T20:43:33.009Z,29.02
2023-04-11T20:45:59.669Z,28.27
2023-04-11T20:48:29.622Z,28.10
2023-04-11T20:50:56.250Z,27.58
2023-04-11T20:53:22.983Z,26.83
2023-04-11T20:55:49.593Z,27.67
2023-04-11T20:58:18.730Z,27.60
2023-04-11T21:00:45.516Z,27.40
2023-04-11T21:03:12.468Z,27.27
2023-04-11T21:05:44.157Z,28.02
2023-04-11T21:08:14.060Z,28.25
2023-04-11T21:10:40.834Z,27.30
2023-04-11T21:13:07.499Z,28.25
2023-04-11T21:15:34.749Z,27.58
2023-04-11T21:18:01.597Z,28.15
2023-04-11T21:20:28.750Z,27.45
2023-04-11T21:22:55.529Z,26.40
2023-04-11T21:25:23.551Z,25.92
2023-04-11T21:27:50.338Z,26.25
2023-04-11T21:30:17.075Z,26.13
2023-04-11T21:32:43.829Z,26.92
2023-04-11T21:35:11.794Z,27.10
2023-04-11T21:37:38.951Z,26.73
2023-04-11T21:40:06.393Z,26.67
2023-04-11T21:42:32.996Z,26.77
2023-04-11T21:44:59.626Z,25.98
2023-04-11T21:47:26.245Z,24.55
2023-04-11T21:49:52.971Z,25.13
2023-04-11T21:52:19.551Z,25.20
2023-04-11T21:54:46.462Z,26.40
2023-04-11T21:57:13.063Z,27.02
2023-04-11T21:59:39.692Z,27.17
2023-04-11T22:02:07.236Z,28.08
2023-04-11T22:04:39.237Z,28.52
2023-04-11T22:07:15.758Z,28.45
2023-04-11T22:09:46.873Z,30.73
2023-04-11T22:12:17.346Z,28.85
2023-04-11T22:14:43.968Z,30.80
2023-04-11T22:17:10.664Z,33.97
2023-04-11T22:19:37.223Z,37.47
2023-04-11T22:22:08.219Z,38.17
2023-04-11T22:24:34.915Z,40.65
2023-04-11T22:27:04.252Z,44.80
2023-04-11T22:29:31.167Z,46.35
2023-04-11T22:31:59.638Z,50.50
2023-04-11T22:34:27.197Z,47.90
2023-04-11T22:36:53.775Z,49.40
2023-04-11T22:39:21.474Z,50.45
2023-04-11T22:41:52.163Z,50.40
2023-04-11T22:44:19.059Z,48.08
2023-04-11T22:47:06.427Z,49.58
2023-04-11T22:49:40.566Z,47.90
2023-04-11T22:52:15.086Z,47.92
2023-04-11T22:54:43.226Z,45.90
2023-04-11T22:57:10.168Z,43.83
2023-04-11T22:59:36.886Z,42.55
2023-04-11T23:02:03.797Z,38.65
2023-04-11T23:04:31.979Z,34.80
2023-04-11T23:06:59.148Z,32.65
2023-04-11T23:09:26.355Z,32.03
2023-04-11T23:11:53.608Z,32.40
2023-04-11T23:14:21.295Z,30.83
2023-04-11T23:16:48.468Z,31.08
2023-04-11T23:19:15.300Z,31.40
2023-04-11T23:21:42.183Z,30.95
2023-04-11T23:24:09.097Z,30.17
2023-04-11T23:26:36.164Z,29.85
2023-04-11T23:29:02.836Z,30.88
2023-04-11T23:31:31.010Z,29.90
2023-04-11T23:33:57.773Z,29.42
2023-04-11T23:36:24.506Z,30.45
2023-04-11T23:38:51.775Z,30.05
2023-04-11T23:41:18.765Z,29.92
2023-04-11T23:43:45.636Z,29.67
2023-04-11T23:46:13.289Z,29.27
2023-04-11T23:48:39.924Z,29.38
2023-04-11T23:51:07.293Z,28.80
2023-04-11T23:53:34.206Z,29.83
2023-04-11T23:56:01.008Z,37.15
2023-04-11T23:58:27.590Z,29.27
